PDT,Max TemperatureF,Mean TemperatureF,Min TemperatureF,Max Dew PointF,MeanDew PointF,Min DewpointF,Max Humidity, Mean Humidity, Min Humidity, Max Sea Level PressureIn, Mean Sea Level PressureIn, Min Sea Level PressureIn, Max VisibilityMiles, Mean VisibilityMiles, Min VisibilityMiles, Max Wind SpeedMPH, Mean Wind SpeedMPH, Max Gust SpeedMPH,PrecipitationIn, CloudCover, Events, WindDirDegrees
2012-10-1,79,68,59,43,37,32,49,34,22,30.12,30.07,30.03,10,10,10,17,8,26,0.00,0,,56
2012-10-2,69,60,50,48,40,28,64,48,37,30.05,30.01,29.99,10,10,10,20,10,34,0.00,0,,6
2012-10-3,73,64,55,37,28,15,37,27,19,30.02,29.97,29.94,10,10,10,14,8,18,0.00,0,,73
2012-10-4,69,60,53,31,26,20,39,26,20,30.04,30.00,29.94,10,10,10,13,6,18,0.00,0,,38
2012-10-5,64,54,46,39,33,29,74,44,33,30.07,30.04,30.02,10,10,10,12,5,18,0.00,0,Rain,268
2012-10-6,66,55,44,39,34,30,82,49,29,30.07,30.02,29.95,10,10,10,14,7,,0.00,0,,62
2012-10-7,70,60,52,32,27,20,45,30,17,29.97,29.92,29.88,10,10,10,14,8,20,0.00,0,,78
2012-10-8,62,53,44,41,37,32,82,58,39,30.03,29.95,29.90,10,10,10,10,3,,0.00,0,,343
2012-10-9,62,52,45,40,36,32,76,57,42,30.03,30.00,29.97,10,10,10,13,6,,0.00,0,,6
2012-10-10,64,56,50,41,36,32,68,48,41,29.98,29.93,29.87,10,10,10,13,5,18,0.01,0,,11
2012-10-11,66,58,51,41,38,35,68,50,37,29.88,29.84,29.78,10,10,10,13,6,,0.00,0,,26
2012-10-12,57,50,44,45,37,32,96,62,45,30.13,29.98,29.82,10,10,2,15,7,23,0.01,3,Rain,202
2012-10-13,61,53,46,52,49,45,100,91,67,30.33,30.25,30.14,10,5,0,13,8,16,0.03,4,Fog-Rain,185
2012-10-14,57,54,50,50,49,47,100,89,72,30.23,30.15,30.07,10,9,0,16,11,23,0.02,3,Fog-Rain,179
2012-10-15,55,52,48,55,50,46,100,97,89,30.13,30.07,29.91,10,3,0,17,14,26,1.40,8,Fog-Rain,185
2012-10-16,54,46,39,54,45,36,100,91,71,30.24,30.10,29.90,10,5,0,15,9,23,0.27,4,Fog-Rain,317
2012-10-17,57,48,39,40,35,31,83,60,37,30.22,30.16,30.12,10,10,10,8,6,,0.00,0,,81
2012-10-18,70,61,53,38,32,25,46,35,24,30.10,30.01,29.96,10,10,10,18,9,26,0.00,0,,132
2012-10-19,57,52,46,48,43,32,100,79,40,30.06,29.96,29.92,10,4,0,17,9,24,0.17,7,Fog-Rain,218
2012-10-20,46,40,34,45,38,31,100,96,79,30.00,29.97,29.93,10,4,0,10,5,17,0.16,4,Fog-Rain,329
2012-10-21,46,38,33,36,33,31,100,92,65,29.96,29.83,29.67,10,5,0,17,9,25,0.05,6,Fog-Rain,183
2012-10-22,35,32,28,34,31,28,100,96,93,29.75,29.64,29.56,8,1,0,17,10,28,1.21,8,Fog-Rain-Snow,204
2012-10-23,35,31,28,34,30,27,100,94,87,29.94,29.84,29.69,10,1,0,20,13,36,0.68,8,Fog-Rain-Snow,182
2012-10-24,34,31,28,32,30,28,100,95,87,30.22,30.00,29.83,1,0,0,16,12,23,0.62,8,Fog-Rain-Snow,190
2012-10-25,42,37,32,38,32,30,100,93,77,30.39,30.26,30.15,10,3,0,14,8,,0.00,7,Fog,148
2012-10-26,51,44,37,45,37,30,100,81,68,30.32,30.24,30.19,10,9,2,17,12,17,0.01,7,Rain,184
2012-10-27,51,46,42,50,45,41,100,96,87,30.19,30.15,30.09,10,2,0,15,11,22,0.05,8,Fog-Rain,197
2012-10-28,57,52,48,52,50,48,100,94,81,30.11,30.05,29.98,10,6,0,15,10,20,0.00,7,Fog-Rain,193
2012-10-29,57,52,48,51,49,46,100,89,72,30.17,30.09,30.00,10,6,0,16,10,23,0.00,5,Fog-Rain,186
2012-10-30,57,50,46,48,46,44,100,92,75,30.06,29.92,29.81,10,6,0,15,13,23,0.00,3,Fog,186
2012-10-31,48,44,41,46,43,39,100,96,77,29.85,29.78,29.69,10,2,0,22,14,33,0.86,8,Fog-Rain,180